createdAt,value
2023-02-18T05:54:27.629Z,1005.25
2023-02-18T05:55:27.916Z,1005.29
2023-02-18T05:56:27.960Z,1005.31
2023-02-18T05:57:27.528Z,1005.29
2023-02-18T05:58:27.290Z,1005.18
2023-02-18T05:59:27.295Z,1005.22
2023-02-18T06:00:27.301Z,1005.22
2023-02-18T06:01:27.316Z,1005.21
2023-02-18T06:02:27.368Z,1005.26
2023-02-18T06:03:27.324Z,1005.23
2023-02-18T06:04:27.334Z,1005.16
2023-02-18T06:05:27.382Z,1005.19
2023-02-18T06:06:27.348Z,1005.16
2023-02-18T06:07:27.361Z,1005.15
2023-02-18T06:08:27.362Z,1005.19
2023-02-18T06:09:27.369Z,1005.19
2023-02-18T06:10:27.471Z,1005.15
2023-02-18T06:11:27.407Z,1005.2
2023-02-18T06:12:27.495Z,1005.2
2023-02-18T06:13:27.511Z,1005.22
2023-02-18T06:14:27.412Z,1005.27
2023-02-18T06:15:27.418Z,1005.22
2023-02-18T06:16:27.456Z,1005.26
2023-02-18T06:17:27.429Z,1005.23
2023-02-18T06:18:27.441Z,1005.19
2023-02-18T06:19:27.447Z,1005.17
2023-02-18T06:20:27.458Z,1005.18
2023-02-18T06:21:27.463Z,1005.19
2023-02-18T06:22:27.470Z,1005.2
2023-02-18T06:23:27.477Z,1005.13
2023-02-18T06:24:27.480Z,1005.18
2023-02-18T06:25:27.493Z,1005.19
2023-02-18T06:26:27.543Z,1005.21
2023-02-18T06:27:27.506Z,1005.17
2023-02-18T06:28:27.512Z,1005.18
2023-02-18T06:29:27.518Z,1005.14
2023-02-18T06:30:28.225Z,1005.13
2023-02-18T06:31:27.640Z,1005.14
2023-02-18T06:32:27.729Z,1005.11
2023-02-18T06:33:28.184Z,1005.09
2023-02-18T06:34:28.212Z,1005.13
2023-02-18T06:35:27.605Z,1005.05
2023-02-18T06:36:27.571Z,1005.05
2023-02-18T06:37:27.582Z,1005.09
2023-02-18T06:38:27.583Z,1005.09
2023-02-18T06:39:27.605Z,1005.06
2023-02-18T06:40:27.600Z,1004.96
2023-02-18T06:41:27.623Z,1004.99
2023-02-18T06:42:27.728Z,1005.07
2023-02-18T06:43:27.631Z,1005.04
2023-02-18T06:44:27.625Z,1004.99
2023-02-18T06:45:27.682Z,1004.96
2023-02-18T06:46:27.737Z,1004.99
2023-02-18T06:47:27.702Z,1004.98
2023-02-18T06:48:27.760Z,1004.89
2023-02-18T06:49:27.778Z,1004.88
2023-02-18T06:50:27.678Z,1004.83
2023-02-18T06:51:27.681Z,1004.75
2023-02-18T06:52:27.692Z,1004.76
2023-02-18T06:53:27.693Z,1004.8
2023-02-18T06:54:27.705Z,1004.82
2023-02-18T06:55:27.712Z,1004.82
2023-02-18T06:56:29.047Z,1004.8
2023-02-18T06:57:27.732Z,1004.8
2023-02-18T06:58:27.765Z,1004.77
2023-02-18T06:59:27.737Z,1004.69
2023-02-18T07:00:27.750Z,1004.65
2023-02-18T07:01:27.750Z,1004.63
2023-02-18T07:02:27.773Z,1004.6
2023-02-18T07:03:27.792Z,1004.6
2023-02-18T07:04:27.775Z,1004.61
2023-02-18T07:05:27.787Z,1004.61
2023-02-18T07:06:27.857Z,1004.6
2023-02-18T07:07:28.403Z,1004.59
2023-02-18T07:08:27.814Z,1004.53
2023-02-18T07:09:27.819Z,1004.53
2023-02-18T07:10:28.074Z,1004.48
2023-02-18T07:11:27.841Z,1004.41
2023-02-18T07:12:27.838Z,1004.39
2023-02-18T07:13:27.850Z,1004.35
2023-02-18T07:14:27.878Z,1004.35
2023-02-18T07:15:27.883Z,1004.36
2023-02-18T07:16:27.931Z,1004.37
2023-02-18T07:17:27.881Z,1004.36
2023-02-18T07:18:27.887Z,1004.34
2023-02-18T07:19:27.894Z,1004.34
2023-02-18T07:20:27.907Z,1004.33
2023-02-18T07:21:27.908Z,1004.35
2023-02-18T07:22:27.931Z,1004.35
2023-02-18T07:23:27.929Z,1004.36
2023-02-18T07:24:27.942Z,1004.34
2023-02-18T07:25:27.943Z,1004.33
2023-02-18T07:26:27.964Z,1004.37
2023-02-18T07:27:27.960Z,1004.31
2023-02-18T07:28:28.110Z,1004.28
2023-02-18T07:29:27.976Z,1004.28
2023-02-18T07:30:28.045Z,1004.27
2023-02-18T07:31:28.092Z,1004.26
2023-02-18T07:32:28.001Z,1004.23
2023-02-18T07:33:28.007Z,1004.22
2023-02-18T07:34:28.026Z,1004.17
2023-02-18T07:35:28.024Z,1004.12
2023-02-18T07:36:28.030Z,1004.13
2023-02-18T07:37:28.045Z,1004.18
2023-02-18T07:38:28.050Z,1004.15
2023-02-18T07:39:28.082Z,1004.15
2023-02-18T07:40:28.073Z,1004.17
2023-02-18T07:41:28.302Z,1004.14
2023-02-18T07:42:28.690Z,1004.11
2023-02-18T07:43:29.355Z,1004.1
2023-02-18T07:44:28.114Z,1004.06
2023-02-18T07:45:28.115Z,1004.02
2023-02-18T07:46:28.140Z,1004.01
2023-02-18T07:47:28.121Z,1003.99
2023-02-18T07:48:28.129Z,1003.98
2023-02-18T07:49:28.137Z,1003.96
2023-02-18T07:50:28.147Z,1003.91
2023-02-18T07:51:28.162Z,1003.91
2023-02-18T07:52:28.161Z,1003.83
2023-02-18T07:53:28.178Z,1003.9
2023-02-18T07:54:28.183Z,1003.88
2023-02-18T07:55:28.192Z,1003.92
2023-02-18T07:56:28.195Z,1003.92
2023-02-18T07:57:28.209Z,1003.9
2023-02-18T07:58:28.212Z,1003.91
2023-02-18T07:59:28.221Z,1003.94
2023-02-18T08:00:28.320Z,1003.93
2023-02-18T08:01:28.243Z,1003.88
2023-02-18T08:02:28.333Z,1003.86
2023-02-18T08:03:28.278Z,1003.82
2023-02-18T08:04:28.310Z,1003.85
2023-02-18T08:05:28.279Z,1003.85
2023-02-18T08:06:28.290Z,1003.86
2023-02-18T08:07:28.290Z,1003.91
2023-02-18T08:08:28.306Z,1003.9
2023-02-18T08:09:28.311Z,1003.86
2023-02-18T08:10:28.316Z,1003.88
2023-02-18T08:11:28.330Z,1003.85
2023-02-18T08:12:28.337Z,1003.78
2023-02-18T08:13:28.350Z,1003.78
2023-02-18T08:14:28.356Z,1003.77
2023-02-18T08:15:28.361Z,1003.79
2023-02-18T08:16:28.426Z,1003.79
2023-02-18T08:17:28.394Z,1003.77
2023-02-18T08:18:28.413Z,1003.74
2023-02-18T08:19:28.404Z,1003.69
2023-02-18T08:20:30.543Z,1003.67
2023-02-18T08:21:28.648Z,1003.62
2023-02-18T08:22:28.440Z,1003.61
2023-02-18T08:23:28.564Z,1003.61
2023-02-18T08:24:28.448Z,1003.52
2023-02-18T08:25:29.839Z,1003.5
2023-02-18T08:26:28.478Z,1003.45
2023-02-18T08:27:28.473Z,1003.53
2023-02-18T08:28:28.488Z,1003.46
2023-02-18T08:29:28.525Z,1003.54
2023-02-18T08:30:28.713Z,1003.55
2023-02-18T08:31:28.594Z,1003.51
2023-02-18T08:32:28.540Z,1003.54
2023-02-18T08:33:28.529Z,1003.49
2023-02-18T08:34:28.561Z,1003.49
2023-02-18T08:35:28.545Z,1003.5
2023-02-18T08:36:28.555Z,1003.5
2023-02-18T08:37:28.565Z,1003.48
2023-02-18T08:38:28.576Z,1003.48
2023-02-18T08:39:28.582Z,1003.49
2023-02-18T08:40:28.591Z,1003.5
2023-02-18T08:41:28.600Z,1003.51
2023-02-18T08:42:28.613Z,1003.47
2023-02-18T08:43:28.624Z,1003.53
2023-02-18T08:44:28.628Z,1003.55
2023-02-18T08:45:28.635Z,1003.51
2023-02-18T08:46:32.940Z,1003.46
2023-02-18T08:48:13.618Z,1003.42
2023-02-18T08:48:31.013Z,1003.5
2023-02-18T08:49:31.021Z,1003.44
2023-02-18T08:50:31.093Z,1003.39
2023-02-18T08:51:31.041Z,1003.37
2023-02-18T08:52:31.054Z,1003.35
2023-02-18T08:53:31.061Z,1003.25
2023-02-18T08:54:31.072Z,1003.34
2023-02-18T08:55:31.086Z,1003.32
2023-02-18T08:56:31.088Z,1003.29
2023-02-18T08:57:31.108Z,1003.37
2023-02-18T08:58:31.104Z,1003.26
2023-02-18T08:59:31.112Z,1003.26
2023-02-18T09:00:31.130Z,1003.25
2023-02-18T09:01:31.178Z,1003.25
2023-02-18T09:02:31.146Z,1003.18
2023-02-18T09:03:31.153Z,1003.11
2023-02-18T09:04:31.208Z,1003.04
2023-02-18T09:05:31.165Z,1003.07
2023-02-18T09:06:31.207Z,1003.08
2023-02-18T09:07:31.184Z,1003.09
2023-02-18T09:08:31.196Z,1003.03
2023-02-18T09:09:31.207Z,1002.99
2023-02-18T09:10:31.217Z,1002.98
2023-02-18T09:11:31.227Z,1002.99
2023-02-18T09:12:31.233Z,1002.9
2023-02-18T09:13:31.243Z,1003
2023-02-18T09:14:31.250Z,1003.04
2023-02-18T09:15:31.276Z,1002.98
2023-02-18T09:16:31.284Z,1003.11
2023-02-18T09:17:31.359Z,1003.07
2023-02-18T09:18:31.403Z,1003.05
2023-02-18T09:19:31.299Z,1003.07
2023-02-18T09:20:31.311Z,1003.09
2023-02-18T09:21:31.312Z,1003.05
2023-02-18T09:22:31.349Z,1003.02
2023-02-18T09:23:31.332Z,1003.01
2023-02-18T09:24:31.340Z,1002.94
2023-02-18T09:25:31.348Z,1002.91
2023-02-18T09:26:31.357Z,1002.85
2023-02-18T09:27:31.366Z,1002.87
2023-02-18T09:28:31.369Z,1002.82
2023-02-18T09:29:31.382Z,1002.76
2023-02-18T09:30:31.423Z,1002.75
2023-02-18T09:31:31.464Z,1002.78
2023-02-18T09:32:35.418Z,1002.78
2023-02-18T09:33:31.422Z,1002.71
2023-02-18T09:34:31.426Z,1002.75
2023-02-18T09:35:31.472Z,1002.74
2023-02-18T09:36:31.442Z,1002.68
2023-02-18T09:37:31.454Z,1002.66
2023-02-18T09:38:31.513Z,1002.73
2023-02-18T09:39:31.474Z,1002.65
2023-02-18T09:40:31.482Z,1002.65
2023-02-18T09:41:31.494Z,1002.64
2023-02-18T09:42:31.497Z,1002.68
2023-02-18T09:43:31.515Z,1002.6
2023-02-18T09:44:31.517Z,1002.57
2023-02-18T09:45:31.539Z,1002.63
2023-02-18T09:46:31.559Z,1002.48
2023-02-18T09:47:31.547Z,1002.5
2023-02-18T09:48:31.573Z,1002.54
2023-02-18T09:49:31.583Z,1002.52
2023-02-18T09:50:31.579Z,1002.41
2023-02-18T09:51:31.586Z,1002.42
2023-02-18T09:52:32.400Z,1002.37
2023-02-18T09:53:32.211Z,1002.36
2023-02-18T09:54:31.637Z,1002.31
2023-02-18T09:55:31.619Z,1002.21
2023-02-18T09:56:31.629Z,1002.31
2023-02-18T09:57:31.657Z,1002.28
2023-02-18T09:58:31.653Z,1002.15
2023-02-18T09:59:31.660Z,1002.23
2023-02-18T10:00:31.696Z,1002.14
2023-02-18T10:01:31.721Z,1002.17
2023-02-18T10:02:31.690Z,1002.21
2023-02-18T10:03:31.708Z,1002.17
2023-02-18T10:04:31.716Z,1002.17
2023-02-18T10:05:31.725Z,1002.09
2023-02-18T10:06:31.736Z,1002.07
2023-02-18T10:07:31.753Z,1002.17
2023-02-18T10:08:31.764Z,1002.2
2023-02-18T10:09:31.772Z,1002.24
2023-02-18T10:10:31.817Z,1002.17
2023-02-18T10:11:32.399Z,1002.18
2023-02-18T10:12:33.048Z,1002.25
2023-02-18T10:13:31.815Z,1002.22
2023-02-18T10:14:31.818Z,1002.06
2023-02-18T10:15:31.831Z,1002.15
2023-02-18T10:16:31.896Z,1002.02
2023-02-18T10:17:31.883Z,1002.03
2023-02-18T10:18:31.988Z,1002
2023-02-18T10:19:31.873Z,1002.06
2023-02-18T10:20:31.886Z,1002.22
2023-02-18T10:21:31.898Z,1001.84
2023-02-18T10:22:31.910Z,1002.04
2023-02-18T10:23:31.921Z,1001.99
2023-02-18T10:24:31.934Z,1002.05
2023-02-18T10:25:31.942Z,1002
2023-02-18T10:26:32.010Z,1002.02
2023-02-18T10:27:31.967Z,1001.92
2023-02-18T10:28:31.995Z,1001.8
2023-02-18T10:29:31.991Z,1001.84
2023-02-18T10:30:32.036Z,1001.88
2023-02-18T10:31:32.097Z,1001.9
2023-02-18T10:32:32.029Z,1001.77
2023-02-18T10:33:32.043Z,1001.76
2023-02-18T10:34:32.278Z,1001.87
2023-02-18T10:35:32.069Z,1001.75
2023-02-18T10:36:32.847Z,1001.85
2023-02-18T10:37:32.101Z,1001.76
2023-02-18T10:38:32.093Z,1001.74
2023-02-18T10:39:32.127Z,1001.67
2023-02-18T10:40:32.134Z,1001.67
2023-02-18T10:41:32.129Z,1001.71
2023-02-18T10:42:32.169Z,1001.77
2023-02-18T10:43:32.159Z,1001.71
2023-02-18T10:44:32.165Z,1001.73
2023-02-18T10:45:32.174Z,1001.63
2023-02-18T10:46:32.212Z,1001.72
2023-02-18T10:47:32.214Z,1001.66
2023-02-18T10:48:32.212Z,1001.61
2023-02-18T10:49:32.256Z,1001.64
2023-02-18T10:50:32.248Z,1001.76
2023-02-18T10:51:32.240Z,1001.65
2023-02-18T10:52:32.263Z,1001.67
2023-02-18T10:53:32.278Z,1001.64
2023-02-18T10:54:32.276Z,1001.66
2023-02-18T10:55:32.290Z,1001.63
2023-02-18T10:56:32.345Z,1001.71
2023-02-18T10:57:32.321Z,1001.72
2023-02-18T10:58:32.350Z,1001.65
2023-02-18T10:59:32.348Z,1001.57
2023-02-18T11:00:32.357Z,1001.66
2023-02-18T11:01:32.392Z,1001.71
2023-02-18T11:02:32.415Z,1001.74
2023-02-18T11:03:32.376Z,1001.69
2023-02-18T11:04:32.436Z,1001.72
2023-02-18T11:05:32.400Z,1001.68
2023-02-18T11:06:32.418Z,1001.66
2023-02-18T11:07:32.421Z,1001.61
2023-02-18T11:08:32.637Z,1001.53
2023-02-18T11:09:32.563Z,1001.54
2023-02-18T11:10:32.458Z,1001.41
2023-02-18T11:11:32.470Z,1001.48
2023-02-18T11:12:32.473Z,1001.51
2023-02-18T11:13:32.494Z,1001.53
2023-02-18T11:14:32.568Z,1001.51
2023-02-18T11:15:32.512Z,1001.6
2023-02-18T11:16:32.524Z,1001.3
2023-02-18T11:17:32.535Z,1001.45
2023-02-18T11:18:32.546Z,1001.56
2023-02-18T11:19:32.551Z,1001.55
2023-02-18T11:20:32.562Z,1001.56
2023-02-18T11:21:32.580Z,1001.35
2023-02-18T11:22:32.583Z,1001.48
2023-02-18T11:23:32.595Z,1001.28
2023-02-18T11:24:32.619Z,1001.35
2023-02-18T11:25:32.619Z,1001.37
2023-02-18T11:26:32.626Z,1001.39
2023-02-18T11:27:32.652Z,1001.3
2023-02-18T11:28:32.652Z,1001.33
2023-02-18T11:29:32.701Z,1001.32
2023-02-18T11:30:32.732Z,1001.29
2023-02-18T11:31:32.770Z,1001.32
2023-02-18T11:32:32.695Z,1001.3
2023-02-18T11:33:32.718Z,1001.26
2023-02-18T11:34:32.716Z,1001.31
2023-02-18T11:35:32.726Z,1001.24
2023-02-18T11:36:32.736Z,1001.29
2023-02-18T11:37:32.753Z,1001.31
2023-02-18T11:38:32.772Z,1001.26
2023-02-18T11:39:32.770Z,1001.15
2023-02-18T11:40:32.791Z,1001.13
2023-02-18T11:41:32.794Z,1001.04
2023-02-18T11:42:32.803Z,1001.12
2023-02-18T11:43:32.841Z,1001.04
2023-02-18T11:44:32.825Z,1001.12
2023-02-18T11:45:33.446Z,1000.89
2023-02-18T11:46:32.966Z,1000.98
2023-02-18T11:47:32.871Z,1001.03
2023-02-18T11:48:32.883Z,1000.95
2023-02-18T11:49:32.885Z,1000.93
2023-02-18T11:50:32.897Z,1000.95
2023-02-18T11:51:32.904Z,1000.79
2023-02-18T11:52:32.919Z,1000.9
2023-02-18T11:53:32.948Z,1000.9
2023-02-18T11:54:32.938Z,1000.91
2023-02-18T11:55:32.948Z,1000.89
2023-02-18T11:56:32.971Z,1000.89
2023-02-18T11:57:32.982Z,1000.87
2023-02-18T11:58:32.990Z,1000.76
2023-02-18T11:59:32.996Z,1000.9
2023-02-18T12:00:33.193Z,1000.78
2023-02-18T12:01:33.016Z,1000.84
2023-02-18T12:02:33.056Z,1000.94
2023-02-18T12:03:35.032Z,1000.9
2023-02-18T12:04:33.050Z,1000.96
2023-02-18T12:05:33.065Z,1001.01
2023-02-18T12:06:33.131Z,1001.01
2023-02-18T12:07:33.087Z,1000.88
2023-02-18T12:08:33.103Z,1000.95
2023-02-18T12:09:33.128Z,1001.03
2023-02-18T12:10:33.121Z,1000.87
2023-02-18T12:11:33.136Z,1000.89
2023-02-18T12:12:33.143Z,1000.95
2023-02-18T12:13:33.156Z,1000.92
2023-02-18T12:14:33.167Z,1000.91
2023-02-18T12:15:33.173Z,1000.81
2023-02-18T12:16:33.234Z,1000.97
2023-02-18T12:17:33.201Z,1000.77
2023-02-18T12:18:33.236Z,1000.73
2023-02-18T12:19:33.227Z,1000.86
2023-02-18T12:20:33.248Z,1000.67
2023-02-18T12:21:33.247Z,1000.63
2023-02-18T12:22:33.271Z,1000.63
2023-02-18T12:23:33.274Z,1000.78
2023-02-18T12:24:34.006Z,1000.59
2023-02-18T12:25:33.519Z,1000.39
2023-02-18T12:26:33.992Z,1000.74
2023-02-18T12:27:33.400Z,1000.78
2023-02-18T12:28:33.439Z,1000.63
2023-02-18T12:29:35.807Z,1000.51
2023-02-18T12:30:33.429Z,1000.65
2023-02-18T12:31:33.455Z,1000.43
2023-02-18T12:32:33.376Z,1000.62
2023-02-18T12:33:35.341Z,1000.42
2023-02-18T12:34:33.431Z,1000.35
2023-02-18T12:35:33.414Z,1000.3
2023-02-18T12:36:33.420Z,1000.42
2023-02-18T12:37:33.429Z,1000.37
2023-02-18T12:38:33.447Z,1000.36
2023-02-18T12:39:35.716Z,1000.38
2023-02-18T12:40:33.542Z,1000.38
2023-02-18T12:41:33.488Z,1000.36
2023-02-18T12:42:33.502Z,1000.27
2023-02-18T12:43:33.509Z,1000.3
2023-02-18T12:44:33.513Z,1000.34
2023-02-18T12:45:33.536Z,1000.31
2023-02-18T12:46:33.530Z,1000.39
2023-02-18T12:47:33.548Z,1000.38
2023-02-18T12:48:33.559Z,1000.38
2023-02-18T12:49:33.570Z,1000.48
2023-02-18T12:50:33.605Z,1000.47
2023-02-18T12:51:33.588Z,1000.47
2023-02-18T12:52:33.598Z,1000.37
2023-02-18T12:53:33.614Z,1000.35
2023-02-18T12:54:33.629Z,1000.5
2023-02-18T12:55:33.632Z,1000.52
2023-02-18T12:56:33.649Z,1000.64
2023-02-18T12:57:33.656Z,1000.62
2023-02-18T12:58:33.666Z,1000.63
2023-02-18T12:59:33.965Z,1000.59
2023-02-18T13:00:33.690Z,1000.59
2023-02-18T13:01:33.951Z,1000.57
2023-02-18T13:02:33.944Z,1000.3
2023-02-18T13:03:34.027Z,1000.36
2023-02-18T13:04:36.315Z,1000.48
2023-02-18T13:05:33.746Z,1000.58
2023-02-18T13:06:34.007Z,1000.52
2023-02-18T13:07:33.773Z,1000.64
2023-02-18T13:08:34.680Z,1000.51
2023-02-18T13:09:33.805Z,1000.64
2023-02-18T13:10:33.794Z,1000.73
2023-02-18T13:11:33.808Z,1000.64
2023-02-18T13:12:33.819Z,1000.8
2023-02-18T13:13:33.897Z,1000.6
2023-02-18T13:14:33.838Z,1000.66
2023-02-18T13:15:33.857Z,1000.72
2023-02-18T13:16:33.919Z,1000.66
2023-02-18T13:17:33.880Z,1000.7
2023-02-18T13:18:33.884Z,1000.55
2023-02-18T13:19:33.908Z,1000.71
2023-02-18T13:20:33.907Z,1000.61
2023-02-18T13:21:33.929Z,1000.56
2023-02-18T13:22:33.968Z,1000.14
2023-02-18T13:23:33.944Z,1000.66
2023-02-18T13:24:33.950Z,1000.59
2023-02-18T13:25:33.968Z,1000.68
2023-02-18T13:26:34.006Z,1000.55
2023-02-18T13:27:34.073Z,1000.59
2023-02-18T13:28:34.006Z,1000.73
2023-02-18T13:29:34.009Z,1000.53
2023-02-18T13:30:34.134Z,1000.72
2023-02-18T13:31:34.124Z,1000.74
2023-02-18T13:32:34.037Z,1000.74
2023-02-18T13:33:34.045Z,1000.63
2023-02-18T13:34:34.664Z,1000.77
2023-02-18T13:35:34.069Z,1000.76
2023-02-18T13:36:34.084Z,1000.62
2023-02-18T13:37:34.091Z,1000.89
2023-02-18T13:38:34.966Z,1000.85
2023-02-18T13:39:34.133Z,1000.78
2023-02-18T13:40:34.128Z,1000.97
2023-02-18T13:41:34.137Z,1000.91
2023-02-18T13:42:34.147Z,1000.92
2023-02-18T13:43:34.168Z,1000.93
2023-02-18T13:44:34.165Z,1000.76
2023-02-18T13:45:34.181Z,1000.78
2023-02-18T13:46:34.189Z,1000.68
2023-02-18T13:47:34.203Z,1000.4
2023-02-18T13:48:34.213Z,1000.76
2023-02-18T13:49:34.219Z,1000.81
2023-02-18T13:50:34.241Z,1000.81
2023-02-18T13:51:34.244Z,1000.88
2023-02-18T13:52:34.262Z,1000.87
2023-02-18T13:53:34.266Z,1000.72
2023-02-18T13:54:34.311Z,1000.73
2023-02-18T13:55:34.289Z,1000.79
2023-02-18T13:56:34.321Z,1000.79
2023-02-18T13:57:34.314Z,1000.76
2023-02-18T13:58:34.325Z,1000.7
2023-02-18T13:59:34.336Z,1000.77
2023-02-18T14:00:34.359Z,1000.82
2023-02-18T14:01:34.359Z,1000.77
2023-02-18T14:02:34.469Z,1000.94
2023-02-18T14:03:34.380Z,1000.85
2023-02-18T14:04:34.392Z,1000.91
2023-02-18T14:05:34.400Z,1000.83
2023-02-18T14:06:34.428Z,1000.89
2023-02-18T14:07:34.440Z,1000.79
2023-02-18T14:08:34.438Z,1000.89
2023-02-18T14:09:34.447Z,1000.95
2023-02-18T14:10:34.513Z,1000.7
2023-02-18T14:11:34.684Z,1000.88
2023-02-18T14:12:34.484Z,1000.96
2023-02-18T14:13:34.489Z,1001.04
2023-02-18T14:14:34.504Z,1000.88
2023-02-18T14:15:34.581Z,1000.98
2023-02-18T14:16:34.526Z,1000.98
2023-02-18T14:17:34.757Z,1001.05
2023-02-18T14:18:36.931Z,1001.04
2023-02-18T14:19:35.884Z,1001
2023-02-18T14:20:34.575Z,1001.02
2023-02-18T14:21:34.583Z,1000.82
2023-02-18T14:22:34.593Z,1001.08
2023-02-18T14:23:34.596Z,1001.05
2023-02-18T14:24:34.614Z,1000.94
2023-02-18T14:25:34.622Z,1001.06
2023-02-18T14:26:34.662Z,1001.02
2023-02-18T14:27:34.642Z,1001.12
2023-02-18T14:28:34.681Z,1001.01
2023-02-18T14:29:34.667Z,1001.01
2023-02-18T14:30:34.714Z,1001.02
2023-02-18T14:31:34.782Z,1000.99
2023-02-18T14:32:34.718Z,1000.92
2023-02-18T14:33:34.711Z,1000.93
2023-02-18T14:34:34.720Z,1000.97
2023-02-18T14:35:34.731Z,1001.03
2023-02-18T14:36:34.738Z,1000.98
2023-02-18T14:37:34.750Z,1000.99
2023-02-18T14:38:34.758Z,1000.97
2023-02-18T14:39:34.774Z,1000.99
2023-02-18T14:40:34.783Z,1000.88
2023-02-18T14:41:34.795Z,1001.04
2023-02-18T14:42:34.833Z,1001
2023-02-18T14:43:34.813Z,1001.21
2023-02-18T14:44:34.827Z,1001.09
2023-02-18T14:45:34.835Z,1001.09
2023-02-18T14:46:34.896Z,1001.05
2023-02-18T14:47:34.857Z,1001.06
2023-02-18T14:48:34.871Z,1001.07
2023-02-18T14:49:34.888Z,1001.2
2023-02-18T14:50:34.895Z,1001.26
2023-02-18T14:51:34.913Z,1001.22
2023-02-18T14:52:34.935Z,1001.36
2023-02-18T14:53:34.926Z,1001.14
2023-02-18T14:54:34.933Z,1000.9
2023-02-18T14:55:34.950Z,1001.26
2023-02-18T14:56:34.960Z,1001.32
2023-02-18T14:57:35.612Z,1001.34
2023-02-18T14:58:35.001Z,1001.25
2023-02-18T14:59:35.312Z,1001.38
2023-02-18T15:00:35.347Z,1001.39
2023-02-18T15:01:35.109Z,1001.39
2023-02-18T15:02:35.025Z,1001.43
2023-02-18T15:03:35.061Z,1001.39
2023-02-18T15:04:35.055Z,1001.39
2023-02-18T15:05:35.065Z,1001.45
2023-02-18T15:06:35.082Z,1001.47
2023-02-18T15:07:35.086Z,1001.47
2023-02-18T15:08:35.111Z,1001.42
2023-02-18T15:09:35.151Z,1001.47
2023-02-18T15:10:35.114Z,1001.47
2023-02-18T15:11:35.129Z,1001.44
2023-02-18T15:12:35.173Z,1001.52
2023-02-18T15:13:35.156Z,1001.38
2023-02-18T15:14:35.190Z,1001.39
2023-02-18T15:15:35.186Z,1001.31
2023-02-18T15:16:35.191Z,1001.36
2023-02-18T15:17:35.209Z,1001.44
2023-02-18T15:18:35.225Z,1001.42
2023-02-18T15:19:35.221Z,1001.45
2023-02-18T15:20:35.233Z,1001.4
2023-02-18T15:21:35.249Z,1001.47
2023-02-18T15:22:35.250Z,1001.47
2023-02-18T15:23:35.257Z,1001.43
2023-02-18T15:24:35.268Z,1001.49
2023-02-18T15:25:35.282Z,1001.41
2023-02-18T15:26:35.296Z,1001.51
2023-02-18T15:27:35.308Z,1001.53
2023-02-18T15:28:35.314Z,1001.68
2023-02-18T15:29:35.328Z,1001.59
2023-02-18T15:30:35.432Z,1001.52
2023-02-18T15:31:35.569Z,1001.63
2023-02-18T15:32:35.357Z,1001.6
2023-02-18T15:33:35.589Z,1001.69
2023-02-18T15:34:35.977Z,1001.57
2023-02-18T15:35:35.989Z,1001.66
2023-02-18T15:36:35.398Z,1001.62
2023-02-18T15:37:35.980Z,1001.64
2023-02-18T15:38:36.468Z,1001.52
2023-02-18T15:39:35.582Z,1001.68
2023-02-18T15:40:35.482Z,1001.67
2023-02-18T15:41:35.458Z,1001.76
2023-02-18T15:42:35.466Z,1001.83
2023-02-18T15:43:35.458Z,1001.77
2023-02-18T15:44:35.481Z,1001.84
2023-02-18T15:45:35.491Z,1001.79
2023-02-18T15:46:35.584Z,1001.81
2023-02-18T15:47:35.501Z,1001.75
2023-02-18T15:48:35.513Z,1001.72
2023-02-18T15:49:35.523Z,1001.81
2023-02-18T15:50:35.532Z,1001.78
2023-02-18T15:51:35.544Z,1001.76
2023-02-18T15:52:35.556Z,1001.85
2023-02-18T15:53:35.562Z,1001.76
2023-02-18T15:54:36.952Z,1001.84
2023-02-18T15:55:35.585Z,1001.75
2023-02-18T15:56:35.591Z,1001.7
2023-02-18T15:57:35.601Z,1001.81
2023-02-18T15:58:35.607Z,1001.75
2023-02-18T15:59:35.631Z,1001.8
2023-02-18T16:00:35.680Z,1001.79
2023-02-18T16:01:35.671Z,1001.65
2023-02-18T16:02:35.684Z,1001.82
2023-02-18T16:03:35.655Z,1001.87
2023-02-18T16:04:35.669Z,1001.82
2023-02-18T16:05:35.680Z,1001.86
2023-02-18T16:06:35.686Z,1001.8
2023-02-18T16:07:35.698Z,1001.76
2023-02-18T16:08:35.703Z,1001.8
2023-02-18T16:09:35.718Z,1001.88
2023-02-18T16:10:35.724Z,1001.84
2023-02-18T16:11:35.830Z,1001.81
2023-02-18T16:12:35.951Z,1001.88
2023-02-18T16:13:35.752Z,1001.87
2023-02-18T16:14:35.763Z,1001.9
2023-02-18T16:15:35.773Z,1001.9
2023-02-18T16:16:35.955Z,1001.9
2023-02-18T16:17:35.792Z,1001.87
2023-02-18T16:18:35.820Z,1001.88
2023-02-18T16:19:35.811Z,1001.97
2023-02-18T16:20:35.818Z,1001.98
2023-02-18T16:21:35.829Z,1002.02
2023-02-18T16:22:35.839Z,1001.93
2023-02-18T16:23:35.848Z,1001.92
2023-02-18T16:24:35.854Z,1001.98
2023-02-18T16:25:35.863Z,1002.02
2023-02-18T16:26:35.876Z,1002.03
2023-02-18T16:27:35.881Z,1001.98
2023-02-18T16:28:35.892Z,1002.06
2023-02-18T16:29:35.899Z,1002.05
2023-02-18T16:30:35.991Z,1002.06
2023-02-18T16:31:35.970Z,1002.07
2023-02-18T16:32:35.930Z,1002.08
2023-02-18T16:33:36.238Z,1001.95
2023-02-18T16:34:35.997Z,1002.03
2023-02-18T16:35:48.915Z,1002.19
2023-02-18T16:36:35.969Z,1001.93
2023-02-18T16:37:35.974Z,1002.08
2023-02-18T16:38:35.988Z,1002.08
2023-02-18T16:39:35.997Z,1002.01
2023-02-18T16:40:36.000Z,1002.12
2023-02-18T16:41:36.019Z,1002.11
2023-02-18T16:42:36.828Z,1002.19
2023-02-18T16:43:36.027Z,1002.16
2023-02-18T16:44:36.035Z,1002.19
2023-02-18T16:45:36.049Z,1002.21
2023-02-18T16:46:36.054Z,1002.21
2023-02-18T16:47:36.082Z,1002.22
2023-02-18T16:48:36.081Z,1002.12
2023-02-18T16:49:36.089Z,1002.17
2023-02-18T16:50:36.127Z,1002.21
2023-02-18T16:51:36.117Z,1002.22
2023-02-18T16:52:36.190Z,1002.24
2023-02-18T16:53:36.288Z,1002.22
2023-02-18T16:54:36.126Z,1002.24
2023-02-18T16:55:36.141Z,1002.33
2023-02-18T16:56:36.151Z,1002.3
2023-02-18T16:57:36.155Z,1002.37
2023-02-18T16:58:36.162Z,1002.35
2023-02-18T16:59:36.176Z,1002.33
2023-02-18T17:00:36.189Z,1002.3
2023-02-18T17:01:36.193Z,1002.4
2023-02-18T17:02:36.203Z,1002.36
2023-02-18T17:03:36.209Z,1002.41
2023-02-18T17:04:36.250Z,1002.37
2023-02-18T17:05:36.227Z,1002.4
2023-02-18T17:06:36.272Z,1002.46
2023-02-18T17:07:36.250Z,1002.4
2023-02-18T17:08:36.274Z,1002.51
2023-02-18T17:09:36.263Z,1002.48
2023-02-18T17:10:36.281Z,1002.49
2023-02-18T17:11:36.289Z,1002.53
2023-02-18T17:12:36.314Z,1002.54
2023-02-18T17:13:36.298Z,1002.53
2023-02-18T17:14:36.316Z,1002.56
2023-02-18T17:15:36.321Z,1002.63
2023-02-18T17:16:36.379Z,1002.6
2023-02-18T17:17:36.339Z,1002.55
2023-02-18T17:18:36.352Z,1002.61
2023-02-18T17:19:36.376Z,1002.6
2023-02-18T17:20:36.374Z,1002.61
2023-02-18T17:21:36.390Z,1002.63
2023-02-18T17:22:36.438Z,1002.64
2023-02-18T17:23:36.392Z,1002.58
2023-02-18T17:24:36.404Z,1002.68
2023-02-18T17:25:36.411Z,1002.64
2023-02-18T17:26:36.422Z,1002.72
2023-02-18T17:27:36.426Z,1002.67
2023-02-18T17:28:36.436Z,1002.69
2023-02-18T17:29:36.448Z,1002.81
2023-02-18T17:30:36.454Z,1002.75
2023-02-18T17:31:36.562Z,1002.77
2023-02-18T17:32:36.495Z,1002.67
2023-02-18T17:33:36.681Z,1002.73
2023-02-18T17:34:36.700Z,1002.7
2023-02-18T17:35:36.724Z,1002.82
2023-02-18T17:36:36.511Z,1002.83
2023-02-18T17:37:37.119Z,1002.92
2023-02-18T17:38:36.548Z,1002.88
2023-02-18T17:39:36.616Z,1002.88
2023-02-18T17:40:36.560Z,1002.91
2023-02-18T17:41:36.563Z,1002.99
2023-02-18T17:42:36.562Z,1003.05
2023-02-18T17:43:36.568Z,1003.1
2023-02-18T17:44:36.587Z,1003.03
2023-02-18T17:45:36.640Z,1003.09
2023-02-18T17:46:36.598Z,1003.07
2023-02-18T17:47:36.635Z,1003.01
2023-02-18T17:48:36.620Z,1003.11
2023-02-18T17:49:36.705Z,1003.11
2023-02-18T17:50:36.689Z,1003.09
2023-02-18T17:51:36.673Z,1003.14
2023-02-18T17:52:36.674Z,1003.18
2023-02-18T17:53:36.706Z,1003.17
2023-02-18T17:54:36.690Z,1003.17
2023-02-18T17:55:36.763Z,1003.23
2023-02-18T17:56:36.685Z,1003.19
2023-02-18T17:57:36.736Z,1003.26
2023-02-18T17:58:36.702Z,1003.24
2023-02-18T17:59:36.771Z,1003.25
2023-02-18T18:00:36.721Z,1003.25
2023-02-18T18:01:36.876Z,1003.17
2023-02-18T18:02:36.742Z,1003.23